Wetterdaten: Samstag, 20.11.2010
Datum Zeit Temp. A. Feuchte A. Luftdruck Regen Wind Richtung Richtung Sonnenschein UV Solar Windben
20.11.2010 00:00 5,4 C 87 % 1015,5 hPa 0,0 mm 0,0 km/h (0 Bft) N 0 0 min 0 UV-I 0 W/m 0,0 km/h (0 Bft)
20.11.2010 00:10 5,4 C 88 % 1015,5 hPa 0,0 mm 0,0 km/h (0 Bft) N 0 0 min 0 UV-I 0 W/m 0,0 km/h (0 Bft)
20.11.2010 00:20 5,4 C 88 % 1015,4 hPa 0,0 mm 0,0 km/h (0 Bft) N 0 0 min 0 UV-I 0 W/m 0,0 km/h (0 Bft)
20.11.2010 00:30 5,5 C 88 % 1015,4 hPa 0,0 mm 0,0 km/h (0 Bft) N 0 0 min 0 UV-I 0 W/m 0,0 km/h (0 Bft)
20.11.2010 00:40 5,6 C 89 % 1015,4 hPa 0,0 mm 0,0 km/h (0 Bft) N 0 0 min 0 UV-I 0 W/m 0,0 km/h (0 Bft)
20.11.2010 00:50 5,6 C 89 % 1015,4 hPa 0,0 mm 0,0 km/h (0 Bft) S 180 0 min 0 UV-I 0 W/m 1,6 km/h (1 Bft)
20.11.2010 01:00 5,7 C 89 % 1015,4 hPa 0,0 mm 0,0 km/h (0 Bft) S 180 0 min 0 UV-I 0 W/m 3,2 km/h (1 Bft)
20.11.2010 01:10 5,7 C 89 % 1015,4 hPa 0,0 mm 0,0 km/h (0 Bft) S 180 0 min 0 UV-I 0 W/m 1,6 km/h (1 Bft)
20.11.2010 01:20 5,8 C 89 % 1015,5 hPa 0,0 mm 0,0 km/h (0 Bft) S 180 0 min 0 UV-I 0 W/m 1,6 km/h (1 Bft)
20.11.2010 01:30 5,8 C 89 % 1015,5 hPa 0,3 mm 0,0 km/h (0 Bft) S 180 0 min 0 UV-I 0 W/m 1,6 km/h (1 Bft)
20.11.2010 01:40 5,9 C 89 % 1015,5 hPa 0,3 mm 0,0 km/h (0 Bft) N 0 0 min 0 UV-I 0 W/m 0,0 km/h (0 Bft)
20.11.2010 01:50 6,0 C 89 % 1015,5 hPa 0,0 mm 0,0 km/h (0 Bft) N 0 0 min 0 UV-I 0 W/m 0,0 km/h (0 Bft)
20.11.2010 02:00 6,1 C 90 % 1015,5 hPa 0,0 mm 0,0 km/h (0 Bft) S 180 0 min 0 UV-I 0 W/m 1,6 km/h (1 Bft)
20.11.2010 02:10 6,1 C 90 % 1015,5 hPa 0,0 mm 0,0 km/h (0 Bft) N 0 0 min 0 UV-I 0 W/m 0,0 km/h (0 Bft)
20.11.2010 02:20 6,1 C 90 % 1015,5 hPa 0,0 mm 0,0 km/h (0 Bft) N 0 0 min 0 UV-I 0 W/m 0,0 km/h (0 Bft)
20.11.2010 02:30 6,2 C 90 % 1015,5 hPa 0,0 mm 0,0 km/h (0 Bft) S 180 0 min 0 UV-I 0 W/m 1,6 km/h (1 Bft)
20.11.2010 02:40 6,2 C 90 % 1015,5 hPa 0,0 mm 0,0 km/h (0 Bft) S 180 0 min 0 UV-I 0 W/m 1,6 km/h (1 Bft)
20.11.2010 02:50 6,2 C 90 % 1015,5 hPa 0,0 mm 0,0 km/h (0 Bft) N 0 0 min 0 UV-I 0 W/m 0,0 km/h (0 Bft)
20.11.2010 03:00 6,2 C 90 % 1015,4 hPa 0,0 mm 0,0 km/h (0 Bft) S 180 0 min 0 UV-I 0 W/m 1,6 km/h (1 Bft)
20.11.2010 03:10 6,1 C 90 % 1015,4 hPa 0,0 mm 0,0 km/h (0 Bft) N 0 0 min 0 UV-I 0 W/m 0,0 km/h (0 Bft)
20.11.2010 03:20 6,1 C 90 % 1015,4 hPa 0,0 mm 0,0 km/h (0 Bft) S 180 0 min 0 UV-I 0 W/m 1,6 km/h (1 Bft)
20.11.2010 03:30 6,1 C 90 % 1015,3 hPa 0,0 mm 0,0 km/h (0 Bft) S 180 0 min 0 UV-I 0 W/m 1,6 km/h (1 Bft)
20.11.2010 03:40 6,0 C 90 % 1015,4 hPa 0,0 mm 0,0 km/h (0 Bft) S 180 0 min 0 UV-I 0 W/m 1,6 km/h (1 Bft)
20.11.2010 03:50 6,0 C 90 % 1015,3 hPa 0,0 mm 0,0 km/h (0 Bft) S 180 0 min 0 UV-I 0 W/m 1,6 km/h (1 Bft)
20.11.2010 04:00 6,0 C 90 % 1015,2 hPa 0,0 mm 0,0 km/h (0 Bft) S 180 0 min 0 UV-I 0 W/m 1,6 km/h (1 Bft)
20.11.2010 04:10 6,0 C 90 % 1015,2 hPa 0,0 mm 0,0 km/h (0 Bft) N 0 0 min 0 UV-I 0 W/m 0,0 km/h (0 Bft)
20.11.2010 04:20 5,9 C 90 % 1015,2 hPa 0,0 mm 0,0 km/h (0 Bft) N 0 0 min 0 UV-I 0 W/m 0,0 km/h (0 Bft)
20.11.2010 04:30 5,9 C 90 % 1015,2 hPa 0,0 mm 0,0 km/h (0 Bft) N 0 0 min 0 UV-I 0 W/m 0,0 km/h (0 Bft)
20.11.2010 04:40 5,9 C 90 % 1015,1 hPa 0,0 mm 0,0 km/h (0 Bft) S 180 0 min 0 UV-I 0 W/m 1,6 km/h (1 Bft)
20.11.2010 04:50 5,9 C 90 % 1015,2 hPa 0,0 mm 0,0 km/h (0 Bft) N 0 0 min 0 UV-I 0 W/m 0,0 km/h (0 Bft)
20.11.2010 05:00 5,9 C 90 % 1015,2 hPa 0,0 mm 0,0 km/h (0 Bft) N 0 0 min 0 UV-I 0 W/m 0,0 km/h (0 Bft)
20.11.2010 05:10 5,9 C 90 % 1015,2 hPa 0,0 mm 0,0 km/h (0 Bft) S 180 0 min 0 UV-I 0 W/m 1,6 km/h (1 Bft)
20.11.2010 05:20 5,9 C 90 % 1015,2 hPa 0,0 mm 0,0 km/h (0 Bft) N 0 0 min 0 UV-I 0 W/m 0,0 km/h (0 Bft)
20.11.2010 05:30 5,9 C 90 % 1015,0 hPa 0,0 mm 0,0 km/h (0 Bft) N 0 0 min 0 UV-I 0 W/m 0,0 km/h (0 Bft)
20.11.2010 05:40 5,9 C 90 % 1015,0 hPa 0,0 mm 0,0 km/h (0 Bft) N 0 0 min 0 UV-I 0 W/m 0,0 km/h (0 Bft)
20.11.2010 05:50 5,9 C 91 % 1014,9 hPa 0,0 mm 0,0 km/h (0 Bft) N 0 0 min 0 UV-I 0 W/m 0,0 km/h (0 Bft)
20.11.2010 06:00 5,8 C 90 % 1014,8 hPa 0,0 mm 0,0 km/h (0 Bft) N 0 0 min 0 UV-I 0 W/m 0,0 km/h (0 Bft)
20.11.2010 06:10 5,8 C 90 % 1015,0 hPa 0,0 mm 0,0 km/h (0 Bft) N 0 0 min 0 UV-I 0 W/m 0,0 km/h (0 Bft)
20.11.2010 06:20 5,8 C 90 % 1015,0 hPa 0,0 mm 0,0 km/h (0 Bft) N 0 0 min 0 UV-I 0 W/m 0,0 km/h (0 Bft)
20.11.2010 06:30 5,8 C 90 % 1015,1 hPa 0,0 mm 0,0 km/h (0 Bft) N 0 0 min 0 UV-I 0 W/m 0,0 km/h (0 Bft)
20.11.2010 06:40 5,8 C 90 % 1015,2 hPa 0,0 mm 0,0 km/h (0 Bft) N 0 0 min 0 UV-I 0 W/m 0,0 km/h (0 Bft)
20.11.2010 06:50 5,7 C 90 % 1015,2 hPa 0,0 mm 0,0 km/h (0 Bft) N 0 0 min 0 UV-I 0 W/m 0,0 km/h (0 Bft)
20.11.2010 07:00 5,7 C 91 % 1015,2 hPa 0,0 mm 0,0 km/h (0 Bft) N 0 0 min 0 UV-I 0 W/m 0,0 km/h (0 Bft)
20.11.2010 07:10 5,7 C 91 % 1015,3 hPa 0,0 mm 0,0 km/h (0 Bft) S 180 0 min 0 UV-I 0 W/m 1,6 km/h (1 Bft)
20.11.2010 07:20 5,7 C 91 % 1015,2 hPa 0,0 mm 0,0 km/h (0 Bft) S 180 0 min 0 UV-I 0 W/m 1,6 km/h (1 Bft)
20.11.2010 07:30 5,7 C 91 % 1015,3 hPa 0,0 mm 0,0 km/h (0 Bft) S 180 0 min 0 UV-I 0 W/m 1,6 km/h (1 Bft)
20.11.2010 07:40 5,6 C 91 % 1015,4 hPa 0,0 mm 0,0 km/h (0 Bft) S 180 0 min 0 UV-I 0 W/m 1,6 km/h (1 Bft)
20.11.2010 07:50 5,6 C 91 % 1015,6 hPa 0,0 mm 0,0 km/h (0 Bft) S 180 0 min 0 UV-I 0 W/m 1,6 km/h (1 Bft)
20.11.2010 08:00 5,6 C 91 % 1015,7 hPa 0,0 mm 0,0 km/h (0 Bft) S 182 0 min 0 UV-I 0 W/m 0,0 km/h (0 Bft)
20.11.2010 08:10 5,6 C 91 % 1015,7 hPa 0,0 mm 0,0 km/h (0 Bft) N 0 0 min 0 UV-I 0 W/m 0,0 km/h (0 Bft)
20.11.2010 08:20 5,6 C 91 % 1015,8 hPa 0,0 mm 0,0 km/h (0 Bft) N 0 0 min 0 UV-I 7 W/m 0,0 km/h (0 Bft)
20.11.2010 08:30 5,6 C 91 % 1015,7 hPa 0,0 mm 0,0 km/h (0 Bft) S 180 0 min 0 UV-I 12 W/m 1,6 km/h (1 Bft)
20.11.2010 08:40 5,6 C 91 % 1015,8 hPa 0,0 mm 0,0 km/h (0 Bft) S 180 0 min 0 UV-I 19 W/m 1,6 km/h (1 Bft)
20.11.2010 08:50 5,7 C 91 % 1015,8 hPa 0,0 mm 0,0 km/h (0 Bft) N 0 0 min 0 UV-I 23 W/m 0,0 km/h (0 Bft)
20.11.2010 09:00 5,7 C 91 % 1015,8 hPa 0,0 mm 0,0 km/h (0 Bft) S 180 0 min 0 UV-I 33 W/m 1,6 km/h (1 Bft)
20.11.2010 09:10 5,7 C 91 % 1015,7 hPa 0,0 mm 0,0 km/h (0 Bft) N 0 0 min 0 UV-I 44 W/m 0,0 km/h (0 Bft)
20.11.2010 09:20 5,8 C 91 % 1015,7 hPa 0,0 mm 0,0 km/h (0 Bft) N 0 0 min 0 UV-I 58 W/m 0,0 km/h (0 Bft)
20.11.2010 09:30 5,9 C 91 % 1015,7 hPa 0,0 mm 0,0 km/h (0 Bft) N 0 0 min 0 UV-I 69 W/m 0,0 km/h (0 Bft)
20.11.2010 09:40 6,1 C 92 % 1015,7 hPa 0,0 mm 0,0 km/h (0 Bft) S 180 0 min 0 UV-I 76 W/m 1,6 km/h (1 Bft)
20.11.2010 09:50 6,2 C 92 % 1015,8 hPa 0,0 mm 0,0 km/h (0 Bft) S 180 0 min 0 UV-I 77 W/m 3,2 km/h (1 Bft)
20.11.2010 10:00 6,4 C 92 % 1015,7 hPa 0,0 mm 0,0 km/h (0 Bft) S 180 0 min 0 UV-I 100 W/m 1,6 km/h (1 Bft)
20.11.2010 10:10 6,6 C 92 % 1015,8 hPa 0,0 mm 0,0 km/h (0 Bft) S 180 0 min 0 UV-I 114 W/m 1,6 km/h (1 Bft)
20.11.2010 10:20 6,7 C 92 % 1015,8 hPa 0,0 mm 0,0 km/h (0 Bft) S 180 10 min 1 UV-I 144 W/m 1,6 km/h (1 Bft)
20.11.2010 10:30 7,0 C 92 % 1015,9 hPa 0,0 mm 0,0 km/h (0 Bft) S 180 10 min 1 UV-I 299 W/m 1,6 km/h (1 Bft)
20.11.2010 10:40 7,6 C 89 % 1015,8 hPa 0,0 mm 0,0 km/h (0 Bft) S 180 10 min 1 UV-I 279 W/m 4,8 km/h (1 Bft)
20.11.2010 10:50 8,1 C 88 % 1015,7 hPa 0,0 mm 0,0 km/h (0 Bft) S 180 10 min 1 UV-I 160 W/m 3,2 km/h (1 Bft)
20.11.2010 11:00 8,3 C 86 % 1015,7 hPa 0,0 mm 0,0 km/h (0 Bft) S 180 0 min 1 UV-I 141 W/m 6,4 km/h (2 Bft)
20.11.2010 11:10 8,3 C 86 % 1015,7 hPa 0,0 mm 0,0 km/h (0 Bft) S 180 0 min 1 UV-I 118 W/m 1,6 km/h (1 Bft)
20.11.2010 11:20 8,6 C 85 % 1015,7 hPa 0,0 mm 1,6 km/h (1 Bft) S 180 0 min 1 UV-I 114 W/m 9,7 km/h (2 Bft)
20.11.2010 11:30 8,4 C 84 % 1015,5 hPa 0,0 mm 1,6 km/h (1 Bft) SO 135 0 min 1 UV-I 111 W/m 11,3 km/h (2 Bft)
20.11.2010 11:40 8,3 C 83 % 1015,5 hPa 0,0 mm 1,6 km/h (1 Bft) S-SO 157 0 min 1 UV-I 109 W/m 8,0 km/h (2 Bft)
20.11.2010 11:50 8,3 C 83 % 1015,5 hPa 0,0 mm 1,6 km/h (1 Bft) S-SO 157 0 min 1 UV-I 102 W/m 6,4 km/h (2 Bft)
20.11.2010 12:00 8,2 C 83 % 1015,3 hPa 0,0 mm 0,0 km/h (0 Bft) S-SO 157 0 min 1 UV-I 118 W/m 6,4 km/h (2 Bft)
20.11.2010 12:10 8,2 C 84 % 1015,3 hPa 0,0 mm 1,6 km/h (1 Bft) S-SO 157 0 min 1 UV-I 118 W/m 6,4 km/h (2 Bft)
20.11.2010 12:20 8,2 C 83 % 1015,1 hPa 0,0 mm 3,2 km/h (1 Bft) SO 135 0 min 1 UV-I 113 W/m 8,0 km/h (2 Bft)
20.11.2010 12:30 8,2 C 83 % 1015,2 hPa 0,0 mm 1,6 km/h (1 Bft) SO 135 0 min 1 UV-I 105 W/m 6,4 km/h (2 Bft)
20.11.2010 12:40 8,2 C 83 % 1015,1 hPa 0,0 mm 1,6 km/h (1 Bft) O-SO 112 0 min 1 UV-I 98 W/m 6,4 km/h (2 Bft)
20.11.2010 12:50 8,1 C 82 % 1015,1 hPa 0,0 mm 1,6 km/h (1 Bft) O-SO 112 0 min 1 UV-I 97 W/m 6,4 km/h (2 Bft)
20.11.2010 13:00 8,1 C 82 % 1015,0 hPa 0,0 mm 1,6 km/h (1 Bft) O-SO 112 0 min 1 UV-I 98 W/m 4,8 km/h (1 Bft)
20.11.2010 13:10 8,1 C 82 % 1014,8 hPa 0,0 mm 0,0 km/h (0 Bft) O-SO 112 0 min 1 UV-I 90 W/m 1,6 km/h (1 Bft)
20.11.2010 13:20 8,1 C 82 % 1014,6 hPa 0,0 mm 0,0 km/h (0 Bft) O-SO 112 0 min 1 UV-I 88 W/m 4,8 km/h (1 Bft)
20.11.2010 13:30 8,1 C 82 % 1014,6 hPa 0,0 mm 0,0 km/h (0 Bft) O-SO 112 0 min 1 UV-I 88 W/m 4,8 km/h (1 Bft)
20.11.2010 13:40 8,1 C 82 % 1014,6 hPa 0,0 mm 0,0 km/h (0 Bft) O-SO 112 0 min 1 UV-I 88 W/m 4,8 km/h (1 Bft)
20.11.2010 13:50 8,2 C 82 % 1014,6 hPa 0,0 mm 1,6 km/h (1 Bft) O-SO 112 0 min 0 UV-I 84 W/m 4,8 km/h (1 Bft)
20.11.2010 14:00 8,2 C 82 % 1014,5 hPa 0,0 mm 0,0 km/h (0 Bft) O-SO 112 0 min 0 UV-I 83 W/m 6,4 km/h (2 Bft)
20.11.2010 14:10 8,2 C 82 % 1014,3 hPa 0,0 mm 0,0 km/h (0 Bft) O-SO 112 0 min 0 UV-I 77 W/m 4,8 km/h (1 Bft)
20.11.2010 14:20 8,2 C 82 % 1014,1 hPa 0,0 mm 0,0 km/h (0 Bft) O-SO 112 0 min 0 UV-I 76 W/m 4,8 km/h (1 Bft)
20.11.2010 14:30 8,2 C 82 % 1013,9 hPa 0,0 mm 1,6 km/h (1 Bft) O-SO 112 0 min 0 UV-I 91 W/m 3,2 km/h (1 Bft)
20.11.2010 14:40 8,2 C 82 % 1014,0 hPa 0,0 mm 1,6 km/h (1 Bft) O-SO 112 0 min 0 UV-I 93 W/m 6,4 km/h (2 Bft)
20.11.2010 14:50 8,2 C 81 % 1014,0 hPa 0,0 mm 1,6 km/h (1 Bft) O-SO 112 0 min 0 UV-I 74 W/m 6,4 km/h (2 Bft)
20.11.2010 15:00 8,2 C 81 % 1014,0 hPa 0,0 mm 1,6 km/h (1 Bft) O-SO 112 0 min 0 UV-I 70 W/m 8,0 km/h (2 Bft)
20.11.2010 15:10 8,2 C 81 % 1013,9 hPa 0,0 mm 1,6 km/h (1 Bft) O-SO 112 0 min 0 UV-I 62 W/m 6,4 km/h (2 Bft)
20.11.2010 15:20 8,2 C 81 % 1013,9 hPa 0,0 mm 1,3 km/h (1 Bft) O-SO 113 0 min 0 UV-I 47 W/m 3,2 km/h (1 Bft)
20.11.2010 15:30 8,2 C 81 % 1013,8 hPa 0,0 mm 2,4 km/h (1 Bft) O-SO 111 0 min 0 UV-I 40 W/m 6,4 km/h (2 Bft)
20.11.2010 15:40 8,1 C 81 % 1013,8 hPa 0,0 mm 1,8 km/h (1 Bft) O-SO 113 0 min 0 UV-I 29 W/m 8,0 km/h (2 Bft)
20.11.2010 15:50 8,1 C 81 % 1013,8 hPa 0,0 mm 1,2 km/h (1 Bft) O-SO 113 0 min 0 UV-I 23 W/m 4,8 km/h (1 Bft)
20.11.2010 16:00 8,0 C 81 % 1013,9 hPa 0,0 mm 0,8 km/h (0 Bft) O-SO 113 0 min 0 UV-I 16 W/m 8,0 km/h (2 Bft)
20.11.2010 16:10 7,9 C 81 % 1013,9 hPa 0,0 mm 1,4 km/h (1 Bft) O-SO 111 0 min 0 UV-I 10 W/m 6,4 km/h (2 Bft)
20.11.2010 16:20 7,8 C 81 % 1013,8 hPa 0,0 mm 0,4 km/h (0 Bft) O-SO 112 0 min 0 UV-I 2 W/m 3,2 km/h (1 Bft)
20.11.2010 16:30 7,7 C 81 % 1013,9 hPa 0,0 mm 1,4 km/h (1 Bft) O-SO 111 0 min 0 UV-I 0 W/m 6,4 km/h (2 Bft)
20.11.2010 16:40 7,6 C 82 % 1013,9 hPa 0,0 mm 0,7 km/h (0 Bft) O-SO 112 0 min 0 UV-I 0 W/m 4,8 km/h (1 Bft)
20.11.2010 16:50 7,6 C 82 % 1013,9 hPa 0,0 mm 0,7 km/h (0 Bft) O-SO 111 0 min 0 UV-I 0 W/m 4,8 km/h (1 Bft)
20.11.2010 17:00 7,4 C 82 % 1013,9 hPa 0,0 mm 0,8 km/h (0 Bft) O-SO 112 0 min 0 UV-I 0 W/m 4,8 km/h (1 Bft)
20.11.2010 17:10 7,3 C 82 % 1013,9 hPa 0,0 mm 0,3 km/h (0 Bft) O-SO 112 0 min 0 UV-I 0 W/m 4,8 km/h (1 Bft)
20.11.2010 17:20 7,3 C 83 % 1013,9 hPa 0,0 mm 0,7 km/h (0 Bft) O-SO 112 0 min 0 UV-I 0 W/m 4,8 km/h (1 Bft)
20.11.2010 17:30 7,2 C 83 % 1013,9 hPa 0,0 mm 0,7 km/h (0 Bft) O-SO 112 0 min 0 UV-I 0 W/m 4,8 km/h (1 Bft)
20.11.2010 17:40 7,1 C 83 % 1013,9 hPa 0,0 mm 0,3 km/h (0 Bft) O-SO 111 0 min 0 UV-I 0 W/m 3,2 km/h (1 Bft)
20.11.2010 17:50 7,1 C 84 % 1014,0 hPa 0,0 mm 1,0 km/h (0 Bft) O-SO 112 0 min 0 UV-I 0 W/m 6,4 km/h (2 Bft)
20.11.2010 18:00 7,0 C 84 % 1014,0 hPa 0,0 mm 1,8 km/h (1 Bft) O-SO 111 0 min 0 UV-I 0 W/m 6,4 km/h (2 Bft)
20.11.2010 18:10 6,9 C 85 % 1014,0 hPa 0,0 mm 1,2 km/h (1 Bft) O-SO 112 0 min 0 UV-I 0 W/m 6,4 km/h (2 Bft)
20.11.2010 18:20 6,9 C 85 % 1013,9 hPa 0,0 mm 1,6 km/h (1 Bft) O-SO 111 0 min 0 UV-I 0 W/m 6,4 km/h (2 Bft)
20.11.2010 18:30 6,9 C 85 % 1013,9 hPa 0,0 mm 2,4 km/h (1 Bft) O-SO 112 0 min 0 UV-I 0 W/m 8,0 km/h (2 Bft)
20.11.2010 18:40 6,8 C 86 % 1014,0 hPa 0,0 mm 1,1 km/h (1 Bft) O-SO 111 0 min 0 UV-I 0 W/m 4,8 km/h (1 Bft)
20.11.2010 18:50 6,8 C 86 % 1013,8 hPa 0,0 mm 0,8 km/h (0 Bft) O-SO 112 0 min 0 UV-I 0 W/m 4,8 km/h (1 Bft)
20.11.2010 19:00 6,8 C 86 % 1013,7 hPa 0,0 mm 0,0 km/h (0 Bft) O-SO 112 0 min 0 UV-I 0 W/m 4,8 km/h (1 Bft)
20.11.2010 19:10 6,8 C 86 % 1013,6 hPa 0,0 mm 1,6 km/h (1 Bft) O-SO 112 0 min 0 UV-I 0 W/m 4,8 km/h (1 Bft)
20.11.2010 19:20 6,7 C 86 % 1013,5 hPa 0,0 mm 1,6 km/h (1 Bft) O-SO 112 0 min 0 UV-I 0 W/m 4,8 km/h (1 Bft)
20.11.2010 19:30 6,7 C 86 % 1013,4 hPa 0,0 mm 0,0 km/h (0 Bft) O-SO 112 0 min 0 UV-I 0 W/m 6,4 km/h (2 Bft)
20.11.2010 19:40 6,7 C 86 % 1013,5 hPa 0,0 mm 0,0 km/h (0 Bft) O-SO 112 0 min 0 UV-I 0 W/m 3,2 km/h (1 Bft)
20.11.2010 19:50 6,6 C 86 % 1013,5 hPa 0,0 mm 0,0 km/h (0 Bft) O-SO 112 0 min 0 UV-I 0 W/m 6,4 km/h (2 Bft)
20.11.2010 20:00 6,6 C 86 % 1013,6 hPa 0,0 mm 0,0 km/h (0 Bft) O-SO 112 0 min 0 UV-I 0 W/m 4,8 km/h (1 Bft)
20.11.2010 20:10 6,6 C 86 % 1013,6 hPa 0,0 mm 0,0 km/h (0 Bft) O-SO 112 0 min 0 UV-I 0 W/m 4,8 km/h (1 Bft)
20.11.2010 20:20 6,5 C 87 % 1013,5 hPa 0,0 mm 0,0 km/h (0 Bft) O-SO 112 0 min 0 UV-I 0 W/m 4,8 km/h (1 Bft)
20.11.2010 20:30 6,5 C 87 % 1013,4 hPa 0,0 mm 1,6 km/h (1 Bft) O-SO 112 0 min 0 UV-I 0 W/m 4,8 km/h (1 Bft)
20.11.2010 20:40 6,5 C 87 % 1013,4 hPa 0,0 mm 0,0 km/h (0 Bft) O-SO 112 0 min 0 UV-I 0 W/m 3,2 km/h (1 Bft)
20.11.2010 20:50 6,4 C 87 % 1013,3 hPa 0,0 mm 0,0 km/h (0 Bft) O-SO 112 0 min 0 UV-I 0 W/m 3,2 km/h (1 Bft)
20.11.2010 21:00 6,4 C 87 % 1013,3 hPa 0,0 mm 3,2 km/h (1 Bft) O-SO 112 0 min 0 UV-I 0 W/m 6,4 km/h (2 Bft)
20.11.2010 21:10 6,5 C 87 % 1013,3 hPa 0,0 mm 1,6 km/h (1 Bft) O-SO 112 0 min 0 UV-I 0 W/m 6,4 km/h (2 Bft)
20.11.2010 21:20 6,5 C 87 % 1013,3 hPa 0,0 mm 0,0 km/h (0 Bft) O-SO 112 0 min 0 UV-I 0 W/m 4,8 km/h (1 Bft)
20.11.2010 21:30 6,5 C 87 % 1013,3 hPa 0,0 mm 0,0 km/h (0 Bft) O-SO 112 0 min 0 UV-I 0 W/m 4,8 km/h (1 Bft)
20.11.2010 21:40 6,5 C 87 % 1013,2 hPa 0,0 mm 0,0 km/h (0 Bft) O-SO 112 0 min 0 UV-I 0 W/m 4,8 km/h (1 Bft)
20.11.2010 21:50 6,5 C 87 % 1013,2 hPa 0,0 mm 1,6 km/h (1 Bft) O-SO 112 0 min 0 UV-I 0 W/m 6,4 km/h (2 Bft)
20.11.2010 22:00 6,5 C 87 % 1013,0 hPa 0,0 mm 1,6 km/h (1 Bft) O-SO 112 0 min 0 UV-I 0 W/m 6,4 km/h (2 Bft)
20.11.2010 22:10 6,5 C 87 % 1012,9 hPa 0,0 mm 0,0 km/h (0 Bft) O-SO 112 0 min 0 UV-I 0 W/m 4,8 km/h (1 Bft)
20.11.2010 22:20 6,5 C 87 % 1013,0 hPa 0,0 mm 0,0 km/h (0 Bft) O-SO 112 0 min 0 UV-I 0 W/m 4,8 km/h (1 Bft)
20.11.2010 22:30 6,5 C 87 % 1012,9 hPa 0,0 mm 0,0 km/h (0 Bft) O-SO 112 0 min 0 UV-I 0 W/m 4,8 km/h (1 Bft)
20.11.2010 22:40 6,4 C 87 % 1012,8 hPa 0,0 mm 1,6 km/h (1 Bft) O-SO 112 0 min 0 UV-I 0 W/m 4,8 km/h (1 Bft)
20.11.2010 22:50 6,4 C 87 % 1012,7 hPa 0,0 mm 0,0 km/h (0 Bft) O-SO 112 0 min 0 UV-I 0 W/m 4,8 km/h (1 Bft)
20.11.2010 23:00 6,4 C 87 % 1012,7 hPa 0,0 mm 0,0 km/h (0 Bft) O-SO 112 0 min 0 UV-I 0 W/m 1,6 km/h (1 Bft)
20.11.2010 23:10 6,4 C 87 % 1012,7 hPa 0,0 mm 0,0 km/h (0 Bft) O-SO 112 0 min 0 UV-I 0 W/m 3,2 km/h (1 Bft)
20.11.2010 23:20 6,4 C 87 % 1012,7 hPa 0,0 mm 0,0 km/h (0 Bft) O-SO 112 0 min 0 UV-I 0 W/m 3,2 km/h (1 Bft)
20.11.2010 23:30 6,3 C 87 % 1012,8 hPa 0,0 mm 1,6 km/h (1 Bft) O-SO 112 0 min 0 UV-I 0 W/m 6,4 km/h (2 Bft)
20.11.2010 23:40 6,2 C 87 % 1012,7 hPa 0,0 mm 1,6 km/h (1 Bft) O-SO 112 0 min 0 UV-I 0 W/m 6,4 km/h (2 Bft)
20.11.2010 23:50 6,2 C 87 % 1012,6 hPa 0,0 mm 1,6 km/h (1 Bft) O-SO 112 0 min 0 UV-I 0 W/m 8,0 km/h (2 Bft)
_ Min-Zeit 00:00 14:50 23:50 - 00:00 - - - - - 00:00
Minimum _ 5,4 C 81 % 1012,6 hPa - 0,0 km/h (0 Bft) - - - - - 0,0 km/h (0 Bft)
_ Max-Zeit 11:20 09:40 10:30 01:30 12:20 - - 10:20 10:30 10:30 11:30
Maximum _ 8,6 C 92 % 1015,9 hPa 0,3 mm 3,2 km/h
SO (1 Bft)
- - 10 min 1 UV-I 299 W/m 11,3 km/h
SO (2 Bft)
Durchschnitt _ 6,7 C 87 % 1014,6 hPa #0,5 mm 0,5 km/h (0 Bft) O-SO - #40 min. 1 UV-I 85 W/m 3,4 km/h (1 Bft)